Hastings, Oklahoma
Current Conditions -  °F | °C
As of 2:55 PM on Tuesday 25 Nov 2014 (Local Time) from KDUC Reporting Station
Clear Clear  
Wind Chill: 55°   Ceiling: Unl
Heat Index: 55°   Visibility: 10mi
Dew Point: 27°   Wind: 3mph
Humidity: 33%   Direction: 260°W
Pressure: 30.16"   Gusts: NA
Location:  34.23°N, 98.11°W
Report Text: KDUC 252055Z AUTO 26003KT 10SM CLR 13/M03 A3016 RMK AO2
Loading
Personal Weather Stations






























Interactive Weather Map New forecast layout! Learn more

10-Day Weather Forecast

Advertisements
Track Severe Weather on mobile